Time;durP1;ratioP1;P1;durP2;ratioP2;P2;SDS_P1;SDS_P2;PMS_P1;PMS_P2;Temp;Humidity;BMP_temperature;BMP_pressure;BME280_temperature;BME280_humidity;BME280_pressure;Samples;Min_cycle;Max_cycle;Signal;HPM_P1;HPM_P2
2023/03/12 00:01:14;;;;;;;0.00;0.00;;;1.60;84.80;;;;;;5072220;28;20029;-70
2023/03/12 00:03:40;;;;;;;0.00;0.00;;;1.60;84.90;;;;;;5079140;28;20044;-70
2023/03/12 00:06:06;;;;;;;0.00;0.00;;;1.60;84.80;;;;;;5079648;28;20037;-70
2023/03/12 00:08:32;;;;;;;0.00;0.00;;;1.50;84.80;;;;;;5070308;28;20044;-70
2023/03/12 00:10:57;;;;;;;0.00;0.00;;;1.60;84.80;;;;;;5079053;28;20029;-70
2023/03/12 00:13:23;;;;;;;0.00;0.00;;;1.60;84.80;;;;;;5078596;28;20497;-70
2023/03/12 00:15:49;;;;;;;0.00;0.00;;;1.60;84.80;;;;;;5070648;28;20413;-70
2023/03/12 00:18:14;;;;;;;0.10;0.10;;;1.60;84.80;;;;;;5071377;28;20049;-70
2023/03/12 00:20:40;;;;;;;0.00;0.00;;;1.60;84.70;;;;;;5071094;28;20401;-70
2023/03/12 00:23:06;;;;;;;0.00;0.00;;;1.60;84.80;;;;;;5070831;28;20087;-70
2023/03/12 00:25:32;;;;;;;0.10;0.10;;;1.60;84.70;;;;;;5070394;28;20048;-70
2023/03/12 00:27:57;;;;;;;0.00;0.00;;;1.50;84.60;;;;;;5036119;28;20087;-70
2023/03/12 00:30:23;;;;;;;0.00;0.00;;;1.60;84.60;;;;;;5068940;28;20063;-70
2023/03/12 00:32:48;;;;;;;1.10;0.57;;;1.50;84.60;;;;;;5070079;28;20416;-70
2023/03/12 00:35:14;;;;;;;0.00;0.00;;;1.60;84.60;;;;;;5070338;28;20040;-70
2023/03/12 00:37:40;;;;;;;0.10;0.10;;;1.50;84.60;;;;;;5070243;28;20476;-70
2023/03/12 00:40:08;;;;;;;0.00;0.00;;;1.60;84.60;;;;;;5069309;28;20052;-70
2023/03/12 00:42:33;;;;;;;0.00;0.00;;;1.50;84.50;;;;;;5069888;28;20090;-70
2023/03/12 00:44:59;;;;;;;0.00;0.00;;;1.50;84.60;;;;;;5069880;28;20451;-70
2023/03/12 00:47:24;;;;;;;0.00;0.00;;;1.50;84.50;;;;;;5070113;28;20036;-70
2023/03/12 00:49:50;;;;;;;0.00;0.00;;;1.50;84.60;;;;;;5069418;28;20036;-70
2023/03/12 00:52:15;;;;;;;0.00;0.00;;;1.50;84.50;;;;;;5069563;28;20048;-69
2023/03/12 00:54:41;;;;;;;0.00;0.00;;;1.40;84.60;;;;;;5051749;28;20067;-70
2023/03/12 00:57:07;;;;;;;0.00;0.00;;;1.40;84.50;;;;;;5069754;28;20044;-70
2023/03/12 00:59:32;;;;;;;0.00;0.00;;;1.40;84.50;;;;;;5069809;28;20117;-69
2023/03/12 01:01:58;;;;;;;0.00;0.00;;;1.40;84.50;;;;;;5047754;28;20041;-70
2023/03/12 01:04:23;;;;;;;0.00;0.00;;;1.40;84.60;;;;;;5054744;28;20543;-70
2023/03/12 01:06:50;;;;;;;0.00;0.00;;;1.40;84.60;;;;;;5070622;28;20613;-70
2023/03/12 01:09:16;;;;;;;0.00;0.00;;;1.40;84.60;;;;;;5051715;28;20131;-70
2023/03/12 01:11:41;;;;;;;0.00;0.00;;;1.40;84.60;;;;;;5052664;28;20041;-69
2023/03/12 01:14:08;;;;;;;0.00;0.00;;;1.50;84.70;;;;;;5070148;28;20040;-70
2023/03/12 01:16:34;;;;;;;0.00;0.00;;;1.40;84.70;;;;;;5052134;28;20052;-70
2023/03/12 01:19:01;;;;;;;0.05;0.05;;;1.40;84.70;;;;;;5069137;28;20081;-70
2023/03/12 01:21:28;;;;;;;0.10;0.10;;;1.40;84.70;;;;;;5069179;28;20417;-70
2023/03/12 01:23:55;;;;;;;0.00;0.00;;;1.50;84.80;;;;;;5059274;28;20566;-70
2023/03/12 01:26:21;;;;;;;0.00;0.00;;;1.40;84.80;;;;;;5076714;28;20044;-70
2023/03/12 01:28:47;;;;;;;0.10;0.10;;;1.40;84.80;;;;;;5080235;28;20044;-70
2023/03/12 01:31:15;;;;;;;0.00;0.00;;;1.40;84.80;;;;;;5069529;28;20102;-70
2023/03/12 01:33:41;;;;;;;0.10;0.10;;;1.40;84.80;;;;;;5069849;28;20037;-70
2023/03/12 01:36:19;;;;;;;0.00;0.00;;;1.40;84.90;;;;;;5069471;28;20151;-70
2023/03/12 01:38:45;;;;;;;0.03;0.03;;;1.50;84.80;;;;;;5052178;28;20451;-70
2023/03/12 01:41:11;;;;;;;0.00;0.00;;;1.40;84.80;;;;;;5069229;28;20046;-70
2023/03/12 01:43:38;;;;;;;0.00;0.00;;;1.50;84.90;;;;;;5068821;28;20455;-70
2023/03/12 01:46:18;;;;;;;0.00;0.00;;;1.50;84.90;;;;;;5034204;28;20044;-70
2023/03/12 01:49:09;;;;;;;0.00;0.00;;;1.60;84.90;;;;;;5070116;28;20152;-70
2023/03/12 01:51:44;;;;;;;0.00;0.00;;;1.60;85.00;;;;;;5058966;28;20060;-70
2023/03/12 01:54:29;;;;;;;0.00;0.00;;;1.60;85.00;;;;;;5050789;28;20037;-70
2023/03/12 01:56:56;;;;;;;0.00;0.00;;;1.50;85.10;;;;;;5068924;28;20058;-70
2023/03/12 01:59:32;;;;;;;0.00;0.00;;;1.60;85.30;;;;;;5068727;28;20127;-70
2023/03/12 02:01:58;;;;;;;0.10;0.10;;;1.60;85.30;;;;;;5068832;28;20076;-70
2023/03/12 02:04:26;;;;;;;0.10;0.10;;;1.60;85.40;;;;;;5068853;28;20046;-70
2023/03/12 02:07:01;;;;;;;0.32;0.30;;;1.70;85.50;;;;;;5068259;28;20140;-70
2023/03/12 02:09:27;;;;;;;0.10;0.10;;;1.70;85.50;;;;;;5068623;28;20045;-70
2023/03/12 02:11:52;;;;;;;0.10;0.10;;;1.70;85.50;;;;;;5068910;28;20043;-70
2023/03/12 02:14:18;;;;;;;0.00;0.00;;;1.70;85.60;;;;;;5050927;28;20140;-70
2023/03/12 02:16:44;;;;;;;0.10;0.10;;;1.80;85.60;;;;;;5050926;28;20408;-70
2023/03/12 02:19:42;;;;;;;0.00;0.00;;;1.80;85.50;;;;;;5050414;28;20452;-70
2023/03/12 02:22:09;;;;;;;0.08;0.08;;;1.80;85.60;;;;;;5067990;28;20040;-70
2023/03/12 02:24:45;;;;;;;0.10;0.10;;;1.80;85.60;;;;;;5069401;22;20379;-70
2023/03/12 02:27:11;;;;;;;0.00;0.00;;;1.80;85.60;;;;;;5073028;28;20412;-70
2023/03/12 02:29:39;;;;;;;0.10;0.10;;;1.90;85.60;;;;;;5091815;28;20123;-70
2023/03/12 02:32:07;;;;;;;0.00;0.00;;;1.90;85.60;;;;;;5089422;28;20048;-70
2023/03/12 02:34:33;;;;;;;0.00;0.00;;;1.90;85.60;;;;;;5088434;28;20044;-70
2023/03/12 02:36:59;;;;;;;0.00;0.00;;;2.00;85.60;;;;;;5092227;28;20044;-70
2023/03/12 02:39:24;;;;;;;0.00;0.00;;;2.00;85.50;;;;;;5093339;28;20112;-70
2023/03/12 02:41:52;;;;;;;0.00;0.00;;;2.10;85.60;;;;;;5092749;28;20034;-70
2023/03/12 02:44:36;;;;;;;0.10;0.10;;;2.00;85.60;;;;;;5092430;28;20495;-70
2023/03/12 02:47:02;;;;;;;0.03;0.03;;;2.00;85.60;;;;;;5071325;28;20064;-70
2023/03/12 02:49:31;;;;;;;0.00;0.00;;;2.00;85.60;;;;;;5072993;28;20048;-69
2023/03/12 02:51:57;;;;;;;0.10;0.10;;;1.90;85.60;;;;;;5072956;28;20123;-70
2023/03/12 02:54:24;;;;;;;0.00;0.00;;;2.00;85.60;;;;;;5076417;28;20553;-70
2023/03/12 02:56:50;;;;;;;0.05;0.05;;;2.00;85.60;;;;;;5088619;28;20048;-71
2023/03/12 02:59:19;;;;;;;0.00;0.00;;;2.00;85.50;;;;;;5074432;28;20471;-70
2023/03/12 03:01:45;;;;;;;0.00;0.00;;;1.90;85.60;;;;;;5092645;28;20044;-70
2023/03/12 03:04:11;;;;;;;0.00;0.00;;;2.00;85.60;;;;;;5092522;28;20051;-70
2023/03/12 03:06:40;;;;;;;0.00;0.00;;;2.00;85.60;;;;;;5091638;28;20036;-70
2023/03/12 03:09:05;;;;;;;0.05;0.05;;;2.00;85.50;;;;;;5092166;28;20108;-70
2023/03/12 03:11:31;;;;;;;0.00;0.00;;;2.00;85.30;;;;;;5092042;28;20043;-70
2023/03/12 03:13:56;;;;;;;0.00;0.00;;;1.90;85.30;;;;;;5064863;28;20119;-70
2023/03/12 03:16:22;;;;;;;0.00;0.00;;;2.00;85.20;;;;;;5083370;28;20501;-71
2023/03/12 03:18:48;;;;;;;0.00;0.00;;;2.00;85.10;;;;;;5092474;28;20040;-70
2023/03/12 03:21:15;;;;;;;0.00;0.00;;;2.10;85.10;;;;;;5091930;28;20043;-70
2023/03/12 03:23:43;;;;;;;0.10;0.10;;;2.00;85.00;;;;;;5092218;28;20080;-70
2023/03/12 03:26:08;;;;;;;0.00;0.00;;;2.00;85.00;;;;;;5080117;28;20055;-70
2023/03/12 03:28:34;;;;;;;0.10;0.10;;;2.10;85.00;;;;;;5092185;28;20407;-71
2023/03/12 03:31:00;;;;;;;0.00;0.00;;;2.10;84.90;;;;;;5092294;28;20458;-70
2023/03/12 03:33:32;;;;;;;0.00;0.00;;;2.10;84.90;;;;;;5090902;28;20040;-71
2023/03/12 03:36:00;;;;;;;0.00;0.00;;;2.10;84.80;;;;;;5086757;28;20501;-71
2023/03/12 03:38:27;;;;;;;0.00;0.00;;;2.10;84.70;;;;;;5082847;28;20056;-71
2023/03/12 03:40:53;;;;;;;0.00;0.00;;;2.10;84.70;;;;;;5071912;28;20045;-71
2023/03/12 03:43:19;;;;;;;0.00;0.00;;;2.10;84.60;;;;;;5074947;28;20040;-70
2023/03/12 03:45:45;;;;;;;0.00;0.00;;;2.10;84.60;;;;;;5081195;28;20167;-70
2023/03/12 03:48:11;;;;;;;0.00;0.00;;;2.10;84.60;;;;;;5070547;28;20123;-70
2023/03/12 03:50:37;;;;;;;0.00;0.00;;;2.10;84.50;;;;;;5072023;28;20047;-70
2023/03/12 03:53:04;;;;;;;0.00;0.00;;;2.00;84.40;;;;;;5086005;28;20550;-70
2023/03/12 03:55:30;;;;;;;0.00;0.00;;;2.00;84.40;;;;;;5073652;28;20524;-70
2023/03/12 03:57:55;;;;;;;0.00;0.00;;;2.00;84.40;;;;;;5077923;28;20036;-71
2023/03/12 04:00:21;;;;;;;0.08;0.08;;;2.10;84.30;;;;;;5075119;28;20826;-70
2023/03/12 04:02:47;;;;;;;0.10;0.10;;;2.10;84.30;;;;;;5074405;28;20128;-71
2023/03/12 04:05:14;;;;;;;0.00;0.00;;;2.10;84.20;;;;;;5072793;28;20413;-70
2023/03/12 04:07:40;;;;;;;0.00;0.00;;;2.10;84.20;;;;;;5083184;28;20087;-70
2023/03/12 04:10:06;;;;;;;0.00;0.00;;;2.10;84.10;;;;;;5091234;28;20072;-70
2023/03/12 04:12:32;;;;;;;0.00;0.00;;;2.10;84.00;;;;;;5091230;28;20718;-70
2023/03/12 04:14:58;;;;;;;0.05;0.05;;;2.10;83.40;;;;;;5090807;28;20044;-70
2023/03/12 04:17:23;;;;;;;0.00;0.00;;;2.00;83.10;;;;;;5090756;28;20044;-70
2023/03/12 04:19:49;;;;;;;0.52;0.52;;;2.00;83.20;;;;;;5091455;28;20481;-70
2023/03/12 04:22:14;;;;;;;0.15;0.15;;;2.00;83.10;;;;;;5090993;28;20071;-70
2023/03/12 04:24:40;;;;;;;0.00;0.00;;;2.00;83.20;;;;;;5089190;28;20082;-70
2023/03/12 04:27:06;;;;;;;0.00;0.00;;;2.10;83.10;;;;;;5089316;28;20485;-70
2023/03/12 04:29:31;;;;;;;0.22;0.20;;;2.10;83.10;;;;;;5090973;28;20055;-70
2023/03/12 04:31:57;;;;;;;0.00;0.00;;;2.00;83.00;;;;;;5090975;28;20052;-70
2023/03/12 04:34:22;;;;;;;0.00;0.00;;;2.10;83.10;;;;;;5061291;28;20132;-70
2023/03/12 04:36:48;;;;;;;0.00;0.00;;;2.10;83.10;;;;;;5071617;28;20489;-69
2023/03/12 04:39:18;;;;;;;0.00;0.00;;;2.10;83.10;;;;;;5070809;28;20064;-70
2023/03/12 04:41:44;;;;;;;0.00;0.00;;;2.10;82.80;;;;;;5070594;28;20079;-69
2023/03/12 04:44:10;;;;;;;0.00;0.00;;;2.10;82.90;;;;;;5071218;28;20048;-69
2023/03/12 04:46:36;;;;;;;0.10;0.10;;;2.10;82.80;;;;;;5052696;28;20102;-69
2023/03/12 04:49:02;;;;;;;0.00;0.00;;;2.00;82.80;;;;;;5070043;28;20062;-70
2023/03/12 04:51:28;;;;;;;0.00;0.00;;;2.10;82.80;;;;;;5070340;28;20090;-69
2023/03/12 04:53:54;;;;;;;0.00;0.00;;;2.10;82.70;;;;;;5075435;28;20040;-69
2023/03/12 04:56:20;;;;;;;0.00;0.00;;;2.10;82.60;;;;;;5049904;28;20063;-69
2023/03/12 04:58:45;;;;;;;0.00;0.00;;;2.10;82.60;;;;;;5076309;28;20112;-70
2023/03/12 05:01:27;;;;;;;0.00;0.00;;;2.10;82.50;;;;;;5035938;28;20056;-70
2023/03/12 05:03:53;;;;;;;0.10;0.10;;;2.10;82.40;;;;;;5058864;28;20063;-70
2023/03/12 05:06:20;;;;;;;0.00;0.00;;;2.10;82.30;;;;;;5090002;28;20051;-70
2023/03/12 05:08:46;;;;;;;0.10;0.10;;;2.10;82.30;;;;;;5076231;28;20036;-69
2023/03/12 05:11:13;;;;;;;0.03;0.03;;;2.10;82.30;;;;;;5069937;28;20459;-69
2023/03/12 05:13:38;;;;;;;0.30;0.30;;;2.10;82.00;;;;;;5070939;28;20054;-69
2023/03/12 05:16:04;;;;;;;0.00;0.00;;;2.00;81.80;;;;;;5069619;28;20040;-69
2023/03/12 05:18:30;;;;;;;0.00;0.00;;;1.90;81.80;;;;;;5069195;28;20266;-69
2023/03/12 05:21:04;;;;;;;0.00;0.00;;;1.90;81.90;;;;;;5069939;28;20109;-69
2023/03/12 05:23:30;;;;;;;0.28;0.28;;;1.90;81.80;;;;;;5070508;28;20420;-70
2023/03/12 05:25:55;;;;;;;0.00;0.00;;;1.90;82.00;;;;;;5069302;28;20060;-70
2023/03/12 05:28:26;;;;;;;0.00;0.00;;;1.90;82.00;;;;;;5078413;28;20839;-69
2023/03/12 05:30:53;;;;;;;0.10;0.10;;;1.90;82.10;;;;;;5090111;28;20082;-69
2023/03/12 05:33:19;;;;;;;0.00;0.00;;;1.90;82.10;;;;;;5084769;28;20131;-70
2023/03/12 05:35:44;;;;;;;0.13;0.13;;;1.90;82.20;;;;;;5069394;28;20582;-69
2023/03/12 05:38:10;;;;;;;0.10;0.10;;;2.00;82.10;;;;;;5069606;28;20041;-69
2023/03/12 05:40:36;;;;;;;0.10;0.10;;;2.00;82.20;;;;;;5069714;28;20059;-70
2023/03/12 05:43:02;;;;;;;0.40;0.40;;;2.00;82.20;;;;;;5083790;28;20048;-70
2023/03/12 05:45:27;;;;;;;0.00;0.00;;;2.00;82.20;;;;;;5083437;28;20406;-69
2023/03/12 05:47:53;;;;;;;0.00;0.00;;;2.00;82.20;;;;;;5086399;28;20043;-70
2023/03/12 05:50:19;;;;;;;0.03;0.03;;;2.00;82.30;;;;;;5089632;28;20044;-69
2023/03/12 05:52:44;;;;;;;0.00;0.00;;;2.10;82.30;;;;;;5039699;28;20058;-70
2023/03/12 05:55:10;;;;;;;0.00;0.00;;;2.00;82.00;;;;;;5066354;28;20119;-69
2023/03/12 05:57:35;;;;;;;0.00;0.00;;;2.10;82.10;;;;;;5072716;28;20492;-69
2023/03/12 06:00:01;;;;;;;0.00;0.00;;;2.10;82.00;;;;;;5067599;28;20036;-69
2023/03/12 06:02:27;;;;;;;0.00;0.00;;;2.10;82.10;;;;;;5068483;28;20036;-69
2023/03/12 06:04:52;;;;;;;0.00;0.00;;;2.10;82.10;;;;;;5067841;28;20512;-69
2023/03/12 06:07:18;;;;;;;0.20;0.20;;;2.10;82.10;;;;;;5070845;28;20044;-69
2023/03/12 06:09:44;;;;;;;0.00;0.00;;;2.10;82.10;;;;;;5071046;28;20040;-69
2023/03/12 06:12:10;;;;;;;0.00;0.00;;;2.10;82.10;;;;;;5067850;28;20098;-70
2023/03/12 06:14:36;;;;;;;17.45;1.23;;;2.10;82.10;;;;;;5050296;28;20040;-69
2023/03/12 06:17:02;;;;;;;0.13;0.13;;;2.10;82.20;;;;;;5063528;28;20036;-70
2023/03/12 06:19:27;;;;;;;0.00;0.00;;;2.10;82.20;;;;;;5066851;28;20044;-69
2023/03/12 06:21:53;;;;;;;0.00;0.00;;;2.20;82.30;;;;;;5068182;28;20401;-70
2023/03/12 06:24:18;;;;;;;0.10;0.10;;;2.20;82.40;;;;;;5049697;28;20135;-69
2023/03/12 06:26:44;;;;;;;0.00;0.00;;;2.20;82.50;;;;;;5070890;28;20045;-70
2023/03/12 06:29:10;;;;;;;0.10;0.10;;;2.20;82.60;;;;;;5070439;28;20060;-69
2023/03/12 06:31:35;;;;;;;0.00;0.00;;;2.10;82.70;;;;;;5067222;28;20409;-70
2023/03/12 06:34:01;;;;;;;0.00;0.00;;;2.20;82.80;;;;;;5067468;28;20101;-69
2023/03/12 06:36:26;;;;;;;0.10;0.10;;;2.10;82.80;;;;;;5066735;28;20044;-69
2023/03/12 06:38:52;;;;;;;0.10;0.10;;;2.10;83.10;;;;;;5069272;28;20412;-69
2023/03/12 06:41:19;;;;;;;0.00;0.00;;;2.00;83.30;;;;;;5049654;28;20040;-69
2023/03/12 06:43:45;;;;;;;0.10;0.10;;;2.10;83.50;;;;;;5032443;28;20127;-69
2023/03/12 06:46:14;;;;;;;0.10;0.10;;;2.10;83.70;;;;;;5067383;28;20127;-70
2023/03/12 06:48:40;;;;;;;0.10;0.10;;;2.10;84.00;;;;;;5071160;28;20040;-69
2023/03/12 06:51:10;;;;;;;0.00;0.00;;;2.10;84.10;;;;;;5067923;28;20040;-69
2023/03/12 06:53:36;;;;;;;0.10;0.10;;;2.10;84.40;;;;;;5067562;28;20147;-69
2023/03/12 06:56:02;;;;;;;0.03;0.03;;;2.00;84.60;;;;;;5068120;28;20120;-69
2023/03/12 06:58:28;;;;;;;0.10;0.10;;;2.00;84.90;;;;;;5070655;28;20040;-69
2023/03/12 07:00:54;;;;;;;0.10;0.10;;;2.00;85.10;;;;;;5035357;28;20520;-69
2023/03/12 07:03:20;;;;;;;0.00;0.00;;;2.00;85.10;;;;;;5069098;28;20040;-69
2023/03/12 07:05:47;;;;;;;0.00;0.00;;;2.00;85.20;;;;;;5066777;28;20120;-69
2023/03/12 07:08:14;;;;;;;0.28;0.28;;;2.00;85.20;;;;;;5062916;28;20115;-69
2023/03/12 07:10:40;;;;;;;0.00;0.00;;;2.00;85.30;;;;;;5075658;28;20048;-69
2023/03/12 07:13:06;;;;;;;0.00;0.00;;;2.00;85.40;;;;;;5078824;28;20117;-68
2023/03/12 07:15:31;;;;;;;0.10;0.10;;;1.90;85.70;;;;;;5071235;28;20128;-69
2023/03/12 07:18:08;;;;;;;1.02;0.73;;;2.00;85.60;;;;;;5077295;28;20118;-69
2023/03/12 07:20:36;;;;;;;0.00;0.00;;;1.90;86.00;;;;;;5077297;28;20497;-69
2023/03/12 07:23:02;;;;;;;0.57;0.57;;;1.90;86.40;;;;;;5070908;28;20051;-69
2023/03/12 07:25:28;;;;;;;0.00;0.00;;;1.90;86.50;;;;;;5050832;28;20052;-69
2023/03/12 07:27:53;;;;;;;2.55;1.75;;;1.90;86.70;;;;;;5050830;28;20068;-68
2023/03/12 07:30:19;;;;;;;0.10;0.10;;;1.90;86.70;;;;;;5050925;28;20055;-69
2023/03/12 07:32:45;;;;;;;0.00;0.00;;;1.90;86.60;;;;;;5049333;28;20516;-69
2023/03/12 07:35:10;;;;;;;0.00;0.00;;;1.90;86.80;;;;;;5050207;28;20478;-69
2023/03/12 07:37:36;;;;;;;0.00;0.00;;;1.90;87.00;;;;;;5050483;28;20052;-69
2023/03/12 07:40:06;;;;;;;0.00;0.00;;;2.00;86.90;;;;;;5029585;28;20124;-68
2023/03/12 07:42:32;;;;;;;0.00;0.00;;;1.90;87.20;;;;;;5065970;28;20470;-69
2023/03/12 07:44:58;;;;;;;1.95;1.48;;;1.90;87.50;;;;;;5071909;28;20053;-68
2023/03/12 07:47:23;;;;;;;0.00;0.00;;;1.80;87.60;;;;;;5064304;28;20107;-68
2023/03/12 07:49:49;;;;;;;0.20;0.20;;;1.80;87.60;;;;;;5057803;28;20043;-68
2023/03/12 07:52:16;;;;;;;0.10;0.10;;;1.70;88.00;;;;;;5049874;28;20060;-68
2023/03/12 07:54:42;;;;;;;0.80;0.65;;;1.70;88.00;;;;;;5050258;28;20045;-68
2023/03/12 07:57:08;;;;;;;0.00;0.00;;;1.80;88.10;;;;;;5053421;28;20048;-68
2023/03/12 07:59:33;;;;;;;0.00;0.00;;;1.80;88.40;;;;;;5070688;28;20043;-68
2023/03/12 08:01:59;;;;;;;0.00;0.00;;;1.80;88.20;;;;;;5069937;28;20045;-69
2023/03/12 08:04:25;;;;;;;0.10;0.10;;;1.80;88.30;;;;;;5071035;28;20048;-68
2023/03/12 08:06:50;;;;;;;0.00;0.00;;;1.80;88.60;;;;;;5054816;28;20059;-69
2023/03/12 08:09:16;;;;;;;0.00;0.00;;;1.80;88.90;;;;;;5048734;28;20053;-68
2023/03/12 08:11:41;;;;;;;0.15;0.15;;;1.80;89.00;;;;;;5049916;28;20037;-68
2023/03/12 08:14:07;;;;;;;0.00;0.00;;;1.80;89.20;;;;;;5049470;28;20037;-69
2023/03/12 08:16:33;;;;;;;0.00;0.00;;;1.80;89.30;;;;;;5050876;28;20512;-69
2023/03/12 08:18:58;;;;;;;0.10;0.10;;;1.90;89.50;;;;;;5049307;28;20044;-69
2023/03/12 08:21:24;;;;;;;0.00;0.00;;;1.90;89.50;;;;;;5052392;28;20110;-72
2023/03/12 08:23:49;;;;;;;0.10;0.10;;;2.00;89.50;;;;;;5028808;28;20041;-72
2023/03/12 08:26:15;;;;;;;0.00;0.00;;;2.00;89.60;;;;;;5064852;28;20129;-69
2023/03/12 08:28:41;;;;;;;0.00;0.00;;;2.00;89.80;;;;;;5074462;28;20127;-68
2023/03/12 08:31:08;;;;;;;0.10;0.10;;;2.00;89.70;;;;;;5071336;28;20464;-68
2023/03/12 08:33:34;;;;;;;1.08;1.08;;;2.10;89.70;;;;;;5069526;28;20503;-68
2023/03/12 08:35:59;;;;;;;0.00;0.00;;;2.10;89.80;;;;;;5069221;28;20119;-69
2023/03/12 08:38:26;;;;;;;2.58;2.38;;;2.10;90.00;;;;;;5071776;28;20039;-68
2023/03/12 08:41:00;;;;;;;0.00;0.00;;;2.20;90.30;;;;;;5069313;28;20481;-69
2023/03/12 08:43:27;;;;;;;0.00;0.00;;;2.10;90.30;;;;;;5069374;28;20037;-71
2023/03/12 08:46:00;;;;;;;0.70;0.70;;;2.20;90.40;;;;;;5069150;28;20040;-69
2023/03/12 08:48:28;;;;;;;0.00;0.00;;;2.20;90.50;;;;;;5070322;28;20048;-69
2023/03/12 08:50:55;;;;;;;0.00;0.00;;;2.20;90.60;;;;;;5072851;28;20072;-70
2023/03/12 08:53:21;;;;;;;0.00;0.00;;;2.20;90.70;;;;;;5068759;28;20371;-70
2023/03/12 08:55:47;;;;;;;0.00;0.00;;;2.20;90.70;;;;;;5075511;28;20491;-70
2023/03/12 08:58:13;;;;;;;0.00;0.00;;;2.20;90.90;;;;;;5073081;28;20033;-69
2023/03/12 09:00:39;;;;;;;0.00;0.00;;;2.20;91.00;;;;;;5069398;28;20090;-70
2023/03/12 09:03:04;;;;;;;0.00;0.00;;;2.20;91.00;;;;;;5055074;28;20036;-70
2023/03/12 09:05:31;;;;;;;0.00;0.00;;;2.30;91.10;;;;;;5066205;28;20145;-70
2023/03/12 09:07:57;;;;;;;0.20;0.20;;;2.30;91.10;;;;;;5034126;28;20066;-70
2023/03/12 09:10:23;;;;;;;0.00;0.00;;;2.30;91.10;;;;;;5074537;28;20040;-71
2023/03/12 09:12:49;;;;;;;0.00;0.00;;;2.30;91.10;;;;;;5082820;28;20127;-71
2023/03/12 09:15:15;;;;;;;0.00;0.00;;;2.30;91.20;;;;;;5084019;28;20182;-70
2023/03/12 09:17:40;;;;;;;0.00;0.00;;;2.30;91.30;;;;;;5060850;28;20068;-70
2023/03/12 09:20:08;;;;;;;0.05;0.05;;;2.30;91.30;;;;;;5083806;28;20416;-70
2023/03/12 09:22:35;;;;;;;0.00;0.00;;;2.30;91.20;;;;;;5079543;28;20838;-69
2023/03/12 09:25:07;;;;;;;0.00;0.00;;;2.40;91.20;;;;;;5078225;28;20101;-68
2023/03/12 09:27:40;;;;;;;0.17;0.17;;;2.40;91.10;;;;;;5065039;28;20064;-69
2023/03/12 09:30:08;;;;;;;0.00;0.00;;;2.50;91.20;;;;;;5068181;28;20060;-68
2023/03/12 09:32:34;;;;;;;0.00;0.00;;;2.50;91.10;;;;;;5074976;28;20054;-68
2023/03/12 09:35:00;;;;;;;0.10;0.10;;;2.60;91.20;;;;;;5061418;28;20116;-69
2023/03/12 09:37:26;;;;;;;0.00;0.00;;;2.60;91.20;;;;;;5069614;28;20037;-69
2023/03/12 09:39:52;;;;;;;0.00;0.00;;;2.60;91.10;;;;;;5068777;28;20057;-69
2023/03/12 09:42:29;;;;;;;0.00;0.00;;;2.70;91.00;;;;;;5061879;28;20097;-69
2023/03/12 09:44:59;;;;;;;0.47;0.47;;;2.70;90.80;;;;;;5060155;28;20036;-68
2023/03/12 09:47:34;;;;;;;0.93;0.63;;;2.70;90.80;;;;;;5016844;28;20049;-70
2023/03/12 09:50:26;;;;;;;0.10;0.10;;;2.80;90.80;;;;;;5034778;28;20048;-70
2023/03/12 09:53:02;;;;;;;0.00;0.00;;;2.80;90.80;;;;;;5064889;28;20105;-68
2023/03/12 09:55:44;;;;;;;0.00;0.00;;;2.90;90.80;;;;;;5077968;28;20055;-68
2023/03/12 09:58:33;;;;;;;0.00;0.00;;;2.90;91.00;;;;;;5076362;28;20044;-68
2023/03/12 10:01:11;;;;;;;0.00;0.00;;;2.90;91.20;;;;;;5069289;28;20056;-69
2023/03/12 10:03:53;;;;;;;0.00;0.00;;;3.00;91.10;;;;;;5068767;28;20053;-69
2023/03/12 10:06:23;;;;;;;0.00;0.00;;;3.10;91.00;;;;;;5069255;28;20459;-68
2023/03/12 10:09:10;;;;;;;0.03;0.03;;;3.10;90.80;;;;;;5076984;28;20040;-69
2023/03/12 10:12:04;;;;;;;0.00;0.00;;;3.10;90.80;;;;;;5051640;28;20111;-69
2023/03/12 10:14:35;;;;;;;0.20;0.20;;;3.10;90.90;;;;;;5069714;28;20048;-69
2023/03/12 10:17:13;;;;;;;0.00;0.00;;;3.10;90.80;;;;;;5068313;28;20091;-69
2023/03/12 10:20:20;;;;;;;0.00;0.00;;;3.10;91.10;;;;;;5068686;28;20064;-69
2023/03/12 10:22:53;;;;;;;0.00;0.00;;;3.20;91.00;;;;;;5068084;28;20509;-69
2023/03/12 10:26:02;;;;;;;0.00;0.00;;;3.20;90.90;;;;;;5050267;28;20060;-69
2023/03/12 10:28:41;;;;;;;0.00;0.00;;;3.30;90.80;;;;;;5022692;28;20537;-69
2023/03/12 10:31:14;;;;;;;0.10;0.10;;;3.40;90.90;;;;;;5074395;28;20048;-69
2023/03/12 10:33:47;;;;;;;0.00;0.00;;;3.40;90.70;;;;;;5053164;28;20123;-70
2023/03/12 10:36:17;;;;;;;0.00;0.00;;;3.40;90.50;;;;;;5067020;28;20060;-70
2023/03/12 10:38:43;;;;;;;0.00;0.00;;;3.50;90.50;;;;;;5063192;28;20447;-70
2023/03/12 10:41:14;;;;;;;0.00;0.00;;;3.50;90.60;;;;;;5067622;28;20048;-70
2023/03/12 10:43:40;;;;;;;0.53;0.27;;;3.60;90.70;;;;;;5053477;28;20155;-70
2023/03/12 10:46:30;;;;;;;0.00;0.00;;;3.60;90.70;;;;;;5070853;28;20283;-69
2023/03/12 10:49:33;;;;;;;0.00;0.00;;;3.60;90.80;;;;;;5071023;28;21089;-69
2023/03/12 10:52:04;;;;;;;;;;;3.70;90.90;;;;;;4971151;28;20054;-69
2023/03/12 10:54:39;;;;;;;0.10;0.10;;;3.90;90.90;;;;;;5054518;28;19921;-69
2023/03/12 10:57:06;;;;;;;0.10;0.10;;;4.00;90.70;;;;;;5071630;28;20048;-68
2023/03/12 10:59:36;;;;;;;0.10;0.10;;;4.10;90.90;;;;;;5053747;28;20076;-69
2023/03/12 11:02:22;;;;;;;0.10;0.10;;;4.20;90.90;;;;;;5070510;28;20455;-68
2023/03/12 11:04:52;;;;;;;0.03;0.03;;;4.20;91.00;;;;;;5068794;28;20518;-66
2023/03/12 11:07:22;;;;;;;0.10;0.10;;;4.30;91.30;;;;;;5070966;28;20420;-65
2023/03/12 11:10:08;;;;;;;0.00;0.00;;;4.50;91.70;;;;;;5054264;28;20041;-65
2023/03/12 11:12:38;;;;;;;0.00;0.00;;;4.60;91.90;;;;;;5049951;28;20124;-65
2023/03/12 11:15:26;;;;;;;0.10;0.10;;;4.80;92.00;;;;;;5092322;28;20090;-65
2023/03/12 11:18:18;;;;;;;0.10;0.10;;;5.00;92.10;;;;;;5089175;28;20115;-65
2023/03/12 11:20:44;;;;;;;0.00;0.00;;;5.10;92.20;;;;;;5092182;28;20101;-66
2023/03/12 11:23:21;;;;;;;0.00;0.00;;;5.30;92.40;;;;;;5074097;28;20055;-66
2023/03/12 11:26:09;;;;;;;0.00;0.00;;;5.40;92.40;;;;;;5092082;28;20051;-65
2023/03/12 11:28:43;;;;;;;0.00;0.00;;;5.50;92.40;;;;;;5092280;28;20181;-66
2023/03/12 11:31:20;;;;;;;0.00;0.00;;;5.70;92.50;;;;;;5068585;28;20049;-66
2023/03/12 11:33:45;;;;;;;0.00;0.00;;;5.80;93.00;;;;;;5065460;28;20075;-66
2023/03/12 11:36:30;;;;;;;0.00;0.00;;;5.90;93.20;;;;;;5085789;28;20145;-66
2023/03/12 11:39:02;;;;;;;0.00;0.00;;;5.90;93.20;;;;;;5071663;28;20068;-66
2023/03/12 11:41:32;;;;;;;0.00;0.00;;;6.00;93.30;;;;;;5066201;28;20052;-66
2023/03/12 11:44:33;;;;;;;0.00;0.00;;;6.00;93.30;;;;;;5072825;28;20051;-65
2023/03/12 11:47:39;;;;;;;0.30;0.30;;;6.10;93.30;;;;;;5071005;28;20112;-66
2023/03/12 11:50:20;;;;;;;0.00;0.00;;;6.10;93.50;;;;;;5071442;28;20061;-66
2023/03/12 11:52:59;;;;;;;0.00;0.00;;;6.10;93.60;;;;;;5070520;28;20132;-66
2023/03/12 11:55:57;;;;;;;0.00;0.00;;;6.20;93.50;;;;;;5088302;28;20058;-66
2023/03/12 11:58:47;;;;;;;0.10;0.10;;;6.40;93.70;;;;;;5025340;28;20661;-65
2023/03/12 12:01:28;;;;;;;0.00;0.00;;;6.50;93.50;;;;;;5072463;28;20083;-65
2023/03/12 12:04:09;;;;;;;0.00;0.00;;;6.70;93.90;;;;;;5063684;28;20041;-66
2023/03/12 12:07:01;;;;;;;0.00;0.00;;;6.90;94.10;;;;;;5085625;28;20059;-66
2023/03/12 12:09:56;;;;;;;5.82;0.95;;;7.10;94.40;;;;;;5053708;28;20689;-66
2023/03/12 12:12:37;;;;;;;0.88;0.68;;;7.30;94.60;;;;;;5068560;28;20412;-66
2023/03/12 12:15:05;;;;;;;2.88;0.93;;;7.40;94.50;;;;;;5072494;28;20131;-66
2023/03/12 12:17:46;;;;;;;0.68;0.63;;;7.60;94.40;;;;;;5068657;28;20580;-66
2023/03/12 12:20:38;;;;;;;0.00;0.00;;;7.70;94.30;;;;;;5069560;28;20057;-66
2023/03/12 12:23:16;;;;;;;0.00;0.00;;;7.90;94.20;;;;;;5055456;28;20048;-64
2023/03/12 12:25:50;;;;;;;0.28;0.28;;;8.00;94.40;;;;;;5074072;28;20045;-63
2023/03/12 12:28:28;;;;;;;0.03;0.03;;;8.10;94.40;;;;;;5077052;28;20063;-63
2023/03/12 12:31:14;;;;;;;0.10;0.10;;;8.20;94.30;;;;;;5072374;28;20074;-64
2023/03/12 12:33:49;;;;;;;0.65;0.60;;;8.30;94.20;;;;;;5080461;28;20499;-66
2023/03/12 12:36:16;;;;;;;0.08;0.08;;;8.50;94.00;;;;;;5075319;28;20056;-63
2023/03/12 12:38:53;;;;;;;0.00;0.00;;;8.50;93.90;;;;;;5052989;28;20040;-64
2023/03/12 12:41:31;;;;;;;0.00;0.00;;;8.60;93.70;;;;;;5073808;28;20440;-65
2023/03/12 12:44:17;;;;;;;3.60;3.00;;;8.60;93.40;;;;;;5078941;28;20528;-66
2023/03/12 12:46:49;;;;;;;0.08;0.08;;;8.60;93.30;;;;;;5084990;28;20463;-65
2023/03/12 12:49:32;;;;;;;2.30;1.95;;;8.70;93.20;;;;;;5074899;28;20045;-64
2023/03/12 12:52:01;;;;;;;0.10;0.10;;;8.70;93.20;;;;;;5083432;28;20090;-65
2023/03/12 12:54:54;;;;;;;0.47;0.45;;;8.80;93.00;;;;;;5070420;28;20094;-64
2023/03/12 12:57:43;;;;;;;0.00;0.00;;;8.80;92.80;;;;;;5070676;28;20044;-64
2023/03/12 13:00:42;;;;;;;0.43;0.43;;;9.00;92.30;;;;;;5065699;28;20127;-64
2023/03/12 13:03:16;;;;;;;0.00;0.00;;;9.10;91.90;;;;;;5082871;28;20048;-63
2023/03/12 13:05:51;;;;;;;0.00;0.00;;;9.10;91.60;;;;;;5081623;28;20036;-64
2023/03/12 13:08:35;;;;;;;0.00;0.00;;;9.20;91.10;;;;;;5082142;28;20037;-64
2023/03/12 13:11:23;;;;;;;0.00;0.00;;;9.20;90.70;;;;;;5078390;28;20041;-65
2023/03/12 13:14:10;;;;;;;0.20;0.20;;;9.10;90.60;;;;;;5047585;28;20528;-65